createdAt,value
2023-04-25T00:00:08.684Z,78.08
2023-04-25T00:05:16.484Z,78.12
2023-04-25T00:10:20.541Z,78.21
2023-04-25T00:15:23.044Z,77.94
2023-04-25T00:20:26.072Z,77.73
2023-04-25T00:25:28.827Z,77.85
2023-04-25T00:30:31.217Z,77.63
2023-04-25T00:35:33.998Z,77.57
2023-04-25T00:40:36.681Z,77.63
2023-04-25T00:45:40.596Z,77.42
2023-04-25T00:50:52.814Z,77.19
2023-04-25T00:55:55.837Z,76.92
2023-04-25T01:00:59.141Z,76.71
2023-04-25T01:06:01.574Z,76.70
2023-04-25T01:11:04.026Z,76.52
2023-04-25T01:16:06.614Z,76.86
2023-04-25T01:21:11.318Z,76.47
2023-04-25T01:26:14.512Z,76.23
2023-04-25T01:31:18.766Z,76.12
2023-04-25T01:36:22.830Z,76.09
2023-04-25T01:41:25.409Z,75.93
2023-04-25T01:46:28.898Z,76.08
2023-04-25T01:51:31.774Z,75.96
2023-04-25T01:56:38.903Z,76.01
2023-04-25T02:01:43.526Z,75.60
2023-04-25T02:06:57.608Z,75.88
2023-04-25T02:12:06.268Z,75.98
2023-04-25T02:17:32.991Z,76.20
2023-04-25T02:22:36.707Z,76.84
2023-04-25T02:27:41.663Z,77.05
2023-04-25T02:32:44.714Z,76.88
2023-04-25T02:37:47.212Z,77.23
2023-04-25T02:42:49.707Z,77.54
2023-04-25T02:47:52.196Z,77.45
2023-04-25T02:52:55.968Z,77.74
2023-04-25T02:58:04.083Z,78.29
2023-04-25T03:03:23.253Z,78.09
2023-04-25T03:08:30.731Z,78.23
2023-04-25T03:13:35.044Z,78.24
2023-04-25T03:18:37.990Z,78.29
2023-04-25T03:23:40.693Z,78.36
2023-04-25T03:28:43.974Z,78.64
2023-04-25T03:33:46.389Z,78.82
2023-04-25T03:38:49.659Z,79.13
2023-04-25T03:43:53.555Z,79.37
2023-04-25T03:48:56.778Z,79.85
2023-04-25T03:54:15.316Z,80.22
2023-04-25T03:59:43.795Z,80.44
2023-04-25T04:04:48.794Z,80.87
2023-04-25T04:09:52.198Z,81.62
2023-04-25T04:15:01.116Z,81.87
2023-04-25T04:20:07.465Z,81.95
2023-04-25T04:25:15.461Z,82.46
2023-04-25T04:30:38.843Z,82.52
2023-04-25T04:35:44.325Z,82.41
2023-04-25T04:40:49.002Z,82.25
2023-04-25T04:46:01.812Z,82.13
2023-04-25T04:51:14.290Z,81.96
2023-04-25T04:56:24.876Z,81.36
2023-04-25T05:01:38.841Z,80.91
2023-04-25T05:06:55.837Z,79.96
2023-04-25T05:12:21.072Z,79.74
2023-04-25T05:17:49.427Z,79.09
2023-04-25T05:23:00.310Z,78.64
2023-04-25T05:28:25.810Z,78.02
2023-04-25T05:33:51.377Z,77.65
2023-04-25T05:38:55.032Z,76.87
2023-04-25T05:43:58.201Z,76.47
2023-04-25T05:49:18.234Z,76.42
2023-04-25T05:54:51.170Z,75.32
2023-04-25T05:59:54.645Z,74.09
2023-04-25T06:04:59.163Z,72.88
2023-04-25T06:10:02.154Z,72.40
2023-04-25T06:15:20.014Z,71.50
2023-04-25T06:20:29.545Z,69.60
2023-04-25T06:25:34.835Z,68.01
2023-04-25T06:30:38.570Z,67.77
2023-04-25T06:35:48.296Z,67.15
2023-04-25T06:40:54.231Z,65.78
2023-04-25T06:45:57.771Z,65.44
2023-04-25T06:51:04.638Z,65.23
2023-04-25T06:56:07.688Z,65.63
2023-04-25T07:01:28.657Z,65.06
2023-04-25T07:06:32.408Z,64.19
2023-04-25T07:11:35.420Z,62.00
2023-04-25T07:16:38.042Z,58.90
2023-04-25T07:21:49.293Z,57.33
2023-04-25T07:26:51.951Z,57.10
2023-04-25T07:32:07.491Z,56.78
2023-04-25T07:37:09.860Z,56.69
2023-04-25T07:42:22.592Z,54.68
2023-04-25T07:47:25.319Z,54.54
2023-04-25T07:52:29.110Z,54.88
2023-04-25T07:57:39.622Z,55.00
2023-04-25T08:02:42.304Z,55.29
2023-04-25T08:07:51.018Z,53.25
2023-04-25T08:12:53.734Z,49.32
2023-04-25T08:17:56.606Z,48.25
2023-04-25T08:22:59.154Z,47.95
2023-04-25T08:28:20.144Z,49.09
2023-04-25T08:33:23.607Z,50.92
2023-04-25T08:38:44.744Z,51.55
2023-04-25T08:43:50.954Z,53.30
2023-04-25T08:49:01.429Z,53.80
2023-04-25T08:59:18.947Z,52.09
2023-04-25T09:04:22.757Z,46.46
2023-04-25T09:09:25.890Z,46.38
2023-04-25T09:14:29.258Z,47.70
2023-04-25T09:19:42.155Z,47.36
2023-04-25T09:24:56.802Z,45.46
2023-04-25T09:30:06.543Z,46.01
2023-04-25T09:35:29.680Z,47.09
2023-04-25T09:40:40.012Z,48.85
2023-04-25T09:45:50.615Z,49.76
2023-04-25T09:51:09.807Z,50.62
2023-04-25T09:56:14.245Z,50.49
2023-04-25T10:01:18.249Z,50.86
2023-04-25T10:06:36.152Z,47.67
2023-04-25T10:11:41.255Z,48.77
2023-04-25T10:16:44.432Z,48.93
2023-04-25T10:22:16.179Z,48.72
2023-04-25T10:27:19.529Z,49.60
2023-04-25T10:32:22.296Z,48.86
2023-04-25T10:37:25.853Z,48.75
2023-04-25T10:42:29.819Z,49.25
2023-04-25T10:47:38.330Z,49.74
2023-04-25T10:52:41.790Z,49.45
2023-04-25T10:57:47.433Z,49.01
2023-04-25T11:03:00.648Z,48.48
2023-04-25T11:08:08.115Z,47.35
2023-04-25T11:13:11.035Z,48.03
2023-04-25T11:18:18.223Z,47.85
2023-04-25T11:23:20.777Z,47.14
2023-04-25T11:28:25.911Z,47.52
2023-04-25T11:33:30.007Z,47.27
2023-04-25T11:38:32.394Z,46.51
2023-04-25T11:43:36.648Z,47.18
2023-04-25T11:48:41.218Z,47.75
2023-04-25T11:53:46.189Z,47.94
2023-04-25T11:59:07.190Z,47.75
2023-04-25T12:04:15.473Z,47.42
2023-04-25T12:09:22.605Z,48.25
2023-04-25T12:14:28.669Z,48.54
2023-04-25T12:27:01.211Z,49.43
2023-04-25T12:32:03.865Z,48.98
2023-04-25T12:37:06.775Z,49.35
2023-04-25T12:42:10.194Z,48.63
2023-04-25T12:47:13.020Z,49.05
2023-04-25T12:52:15.563Z,49.00
2023-04-25T12:57:18.145Z,48.79
2023-04-25T13:02:20.713Z,48.94
2023-04-25T13:07:23.252Z,49.33
2023-04-25T13:12:25.801Z,49.49
2023-04-25T13:17:28.885Z,49.45
2023-04-25T13:22:31.680Z,49.95
2023-04-25T13:27:35.306Z,50.36
2023-04-25T13:32:38.983Z,50.29
2023-04-25T13:37:41.998Z,50.78
2023-04-25T13:42:46.761Z,50.81
2023-04-25T13:47:49.580Z,51.18
2023-04-25T13:52:52.171Z,51.18
2023-04-25T13:57:54.698Z,51.44
2023-04-25T14:02:57.285Z,51.66
2023-04-25T14:08:01.655Z,51.27
2023-04-25T14:13:05.941Z,51.24
2023-04-25T14:18:08.562Z,51.01
2023-04-25T14:23:11.183Z,49.93
2023-04-25T14:28:13.833Z,49.53
2023-04-25T14:33:16.402Z,49.34
2023-04-25T14:38:19.837Z,49.26
2023-04-25T14:43:22.316Z,49.73
2023-04-25T14:48:25.131Z,49.28
2023-04-25T14:53:28.591Z,49.22
2023-04-25T14:58:31.225Z,49.03
2023-04-25T15:03:34.156Z,48.86
2023-04-25T15:08:37.446Z,48.53
2023-04-25T15:13:58.466Z,48.83
2023-04-25T15:19:01.076Z,48.95
2023-04-25T15:24:03.694Z,49.48
2023-04-25T15:29:06.935Z,50.10
2023-04-25T15:34:09.541Z,50.91
2023-04-25T15:39:12.210Z,51.56
2023-04-25T15:44:14.734Z,52.59
2023-04-25T15:49:54.191Z,53.27
2023-04-25T15:54:57.392Z,53.96
2023-04-25T15:59:59.936Z,54.21
2023-04-25T16:05:03.840Z,54.37
2023-04-25T16:10:07.100Z,54.96
2023-04-25T16:15:10.091Z,55.09
2023-04-25T16:20:13.715Z,55.45
2023-04-25T16:25:16.489Z,55.54
2023-04-25T16:30:18.940Z,55.83
2023-04-25T16:35:21.630Z,56.53
2023-04-25T16:40:24.184Z,57.27
2023-04-25T16:45:27.216Z,57.76
2023-04-25T16:50:29.887Z,57.76
2023-04-25T16:55:32.910Z,58.61
2023-04-25T17:00:35.614Z,58.38
2023-04-25T17:05:38.138Z,59.09
2023-04-25T17:10:40.673Z,59.48
2023-04-25T17:15:43.323Z,59.87
2023-04-25T17:20:46.583Z,60.71
2023-04-25T17:25:49.252Z,61.37
2023-04-25T17:30:52.354Z,61.75
2023-04-25T17:35:54.904Z,62.43
2023-04-25T17:40:57.488Z,62.87
2023-04-25T17:46:00.177Z,63.39
2023-04-25T17:51:03.177Z,63.68
2023-04-25T17:56:10.666Z,64.21
2023-04-25T18:01:22.794Z,64.54
2023-04-25T18:06:25.470Z,64.89
2023-04-25T18:11:29.392Z,65.90
2023-04-25T18:16:32.197Z,66.04
2023-04-25T18:21:34.887Z,66.62
2023-04-25T18:26:37.361Z,66.91
2023-04-25T18:31:41.072Z,67.18
2023-04-25T18:36:43.851Z,67.27
2023-04-25T18:41:55.177Z,67.63
2023-04-25T18:47:02.477Z,67.96
2023-04-25T18:52:05.687Z,68.14
2023-04-25T18:57:08.281Z,68.43
2023-04-25T19:02:11.092Z,68.86
2023-04-25T19:07:15.156Z,69.33
2023-04-25T19:12:17.765Z,69.60
2023-04-25T19:17:20.241Z,69.61
2023-04-25T19:22:22.880Z,69.79
2023-04-25T19:27:25.322Z,70.02
2023-04-25T19:32:27.821Z,70.62
2023-04-25T19:37:31.116Z,70.94
2023-04-25T19:42:33.769Z,71.21
2023-04-25T19:47:39.735Z,71.38
2023-04-25T19:52:42.438Z,71.20
2023-04-25T19:57:44.923Z,71.40
2023-04-25T20:02:48.182Z,71.77
2023-04-25T20:07:50.876Z,71.81
2023-04-25T20:12:54.324Z,71.80
2023-04-25T20:17:57.144Z,71.62
2023-04-25T20:22:59.891Z,71.81
2023-04-25T20:28:02.428Z,72.48
2023-04-25T20:33:07.665Z,72.85
2023-04-25T20:38:10.201Z,72.28
2023-04-25T20:43:13.128Z,73.22
2023-04-25T20:48:15.804Z,72.45
2023-04-25T20:53:18.280Z,73.59
2023-04-25T20:58:21.325Z,72.72
2023-04-25T21:03:24.090Z,73.65
2023-04-25T21:08:26.709Z,72.94
2023-04-25T21:13:29.293Z,73.03
2023-04-25T21:18:32.267Z,73.38
2023-04-25T21:23:35.037Z,73.69
2023-04-25T21:28:37.549Z,72.86
2023-04-25T21:33:40.050Z,73.22
2023-04-25T21:38:42.544Z,72.85
2023-04-25T21:43:45.370Z,72.83
2023-04-25T21:48:47.880Z,72.97
2023-04-25T21:53:50.383Z,72.84
2023-04-25T21:59:12.129Z,73.48
2023-04-25T22:04:14.976Z,72.93
2023-04-25T22:09:18.014Z,73.54
2023-04-25T22:14:21.660Z,73.55
2023-04-25T22:19:24.292Z,73.43
2023-04-25T22:24:30.357Z,73.33
2023-04-25T22:29:33.130Z,73.15
2023-04-25T22:34:35.636Z,73.41
2023-04-25T22:39:56.678Z,73.60
2023-04-25T22:45:18.747Z,73.36
2023-04-25T22:50:21.419Z,73.56
2023-04-25T22:55:24.143Z,74.07
2023-04-25T23:00:29.308Z,73.71
2023-04-25T23:05:33.142Z,73.57
2023-04-25T23:10:35.820Z,73.73
2023-04-25T23:15:38.334Z,73.78
2023-04-25T23:20:40.940Z,74.14
2023-04-25T23:25:43.417Z,73.89
2023-04-25T23:30:45.966Z,73.86
2023-04-25T23:35:48.577Z,73.99
2023-04-25T23:40:51.284Z,74.30
2023-04-25T23:45:54.486Z,74.14
2023-04-25T23:50:57.174Z,74.25
2023-04-25T23:56:00.590Z,74.33
